Detall de PIREP

Printer-friendly versionPDF version

[2008/12/21 14:31:00]
Flight IATA:CT0001
Pilot Number:041
Company ICAO:CAT
Aircraft Type:BE20/A
PAX:5
Departing Airport: LEMH
Destination Airport: LEGE
Alternate Airport:LEBL
Online: VATSIM
Route:SARGO2C A67 VERSO A67 AGENA A67 DALIN A67 BGR2F

Flight Level:FL140
No Slew and time accel
No pause
Crash detect
Detect pilot in Cockpit between each 30 and 45 minutes
14:31 Zero fuel Weight: 9767 Lbs, Fuel Weight: 2134 Lbs
14:31 VATSIM:LEMH 211400Z 30008KT 250V350 9999 FEW028 15/08 Q1029
14:31 VATSIM:LEGE 211400Z 00000KT CAVOK 15/07 Q1028
14:31 VOICE CATALONIAN
14:35 Parking Brakes off
14:40 Take-off
14:40 Take off Weight: 11851 Lbs
14:40 Wind: 298º @ 007 Knots Heading: 007º
14:40 POS N39º 51´ 55´´ E004º 13´ 09´´
14:40 Gear Up: 144 Knots
14:40 Flaps:1 at 144 Knots
14:41 Flaps:0 at 155 Knots
14:55 Wind:031º@014 Knots Heading: 343º Ground Speed: 224 Knots Altitude 11656
ft
14:57 TOC
14:57 Fuel Weight: 1838 Lb
15:07 TOD
15:07 Fuel Weight: 1711 Lb
15:10 Wind:019º@012 Knots Heading: 327º Ground Speed: 237 Knots Altitude 11758 ft
15:25 Wind:339º@008 Knots Heading: 219º Ground Speed: 214 Knots Altitude 4504 ft
15:26 Flaps:1 at 209 Knots
15:28 Flaps:2 at 206 Knots
15:28 Gear Down: 206 Knots
15:29 Flaps:1 at 162 Knots
15:34 Flaps:2 at 138 Knots
15:36 TouchDown:Rate -31 ft/min Speed: 100 Knots
15:36 Flaps:0 at 84 Knots
15:36 VATSIM:LEGE 211500Z VRB02KT CAVOK 14/08 Q1028
15:36 Land
15:36 Wind:087º@001 Knots
15:36 Heading: 194º
15:36 Flight Duration: 00:56
15:36 Landing Weight: 11252 Lbs
15:36 POS N41º 54´ 07´´ E002º 45´ 39´´
15:38 Parking brakes on
15:38 Block to Block Duration: 01:03
15:38 Final Fuel: 1474 Lbls
15:38 Spent Fuel: 659 Lbls
15:38 Flight Length: 196 NM
15:38 TOD Land Length: 95 NM

Exportar CSV

Powered by Drupal - Modified by Danger4k